sensor_id;sensor_type;location;lat;lon;timestamp;P1;durP1;ratioP1;P2;durP2;ratioP2
25437;SDS011;13364;49.084;9.978;2023-08-31T00:01:20;3.40;;;1.30;;
25437;SDS011;13364;49.084;9.978;2023-08-31T00:03:47;2.10;;;1.45;;
25437;SDS011;13364;49.084;9.978;2023-08-31T00:06:14;1.30;;;1.20;;
25437;SDS011;13364;49.084;9.978;2023-08-31T00:08:41;1.55;;;1.30;;
25437;SDS011;13364;49.084;9.978;2023-08-31T00:11:08;3.38;;;1.60;;
25437;SDS011;13364;49.084;9.978;2023-08-31T00:13:35;1.40;;;1.25;;
25437;SDS011;13364;49.084;9.978;2023-08-31T00:16:02;1.52;;;1.42;;
25437;SDS011;13364;49.084;9.978;2023-08-31T00:18:29;1.67;;;1.58;;
25437;SDS011;13364;49.084;9.978;2023-08-31T00:20:56;1.60;;;1.40;;
25437;SDS011;13364;49.084;9.978;2023-08-31T00:23:24;1.75;;;1.50;;
25437;SDS011;13364;49.084;9.978;2023-08-31T00:25:52;1.23;;;1.08;;
25437;SDS011;13364;49.084;9.978;2023-08-31T00:28:20;1.45;;;1.35;;
25437;SDS011;13364;49.084;9.978;2023-08-31T00:30:47;1.67;;;1.33;;
25437;SDS011;13364;49.084;9.978;2023-08-31T00:33:16;1.48;;;1.30;;
25437;SDS011;13364;49.084;9.978;2023-08-31T00:35:44;1.50;;;1.38;;
25437;SDS011;13364;49.084;9.978;2023-08-31T00:38:14;1.30;;;1.20;;
25437;SDS011;13364;49.084;9.978;2023-08-31T00:40:42;2.22;;;1.70;;
25437;SDS011;13364;49.084;9.978;2023-08-31T00:43:14;1.38;;;1.27;;
25437;SDS011;13364;49.084;9.978;2023-08-31T00:45:49;1.40;;;1.30;;
25437;SDS011;13364;49.084;9.978;2023-08-31T00:48:17;1.90;;;1.48;;
25437;SDS011;13364;49.084;9.978;2023-08-31T00:50:45;1.65;;;1.23;;
25437;SDS011;13364;49.084;9.978;2023-08-31T00:53:13;1.80;;;1.50;;
25437;SDS011;13364;49.084;9.978;2023-08-31T00:55:41;1.42;;;1.20;;
25437;SDS011;13364;49.084;9.978;2023-08-31T00:58:11;2.45;;;1.48;;
25437;SDS011;13364;49.084;9.978;2023-08-31T01:00:47;1.50;;;1.40;;
25437;SDS011;13364;49.084;9.978;2023-08-31T01:09:19;1.58;;;1.45;;
25437;SDS011;13364;49.084;9.978;2023-08-31T01:14:19;3.00;;;1.67;;
25437;SDS011;13364;49.084;9.978;2023-08-31T01:16:50;2.15;;;1.60;;
25437;SDS011;13364;49.084;9.978;2023-08-31T01:19:25;2.20;;;2.00;;
25437;SDS011;13364;49.084;9.978;2023-08-31T01:21:57;2.13;;;1.83;;
25437;SDS011;13364;49.084;9.978;2023-08-31T01:24:30;2.88;;;2.20;;
25437;SDS011;13364;49.084;9.978;2023-08-31T01:26:58;2.17;;;1.98;;
25437;SDS011;13364;49.084;9.978;2023-08-31T01:29:26;3.35;;;2.22;;
25437;SDS011;13364;49.084;9.978;2023-08-31T01:31:53;3.45;;;2.00;;
25437;SDS011;13364;49.084;9.978;2023-08-31T01:34:20;2.25;;;1.90;;
25437;SDS011;13364;49.084;9.978;2023-08-31T01:36:48;2.97;;;2.22;;
25437;SDS011;13364;49.084;9.978;2023-08-31T01:39:24;2.58;;;1.92;;
25437;SDS011;13364;49.084;9.978;2023-08-31T01:42:00;3.63;;;2.00;;
25437;SDS011;13364;49.084;9.978;2023-08-31T01:44:30;3.75;;;1.90;;
25437;SDS011;13364;49.084;9.978;2023-08-31T01:49:37;3.00;;;1.73;;
25437;SDS011;13364;49.084;9.978;2023-08-31T01:52:05;2.35;;;2.13;;
25437;SDS011;13364;49.084;9.978;2023-08-31T01:54:33;4.95;;;2.13;;
25437;SDS011;13364;49.084;9.978;2023-08-31T01:57:01;2.33;;;2.03;;
25437;SDS011;13364;49.084;9.978;2023-08-31T01:59:30;2.65;;;1.88;;
25437;SDS011;13364;49.084;9.978;2023-08-31T02:01:57;2.58;;;2.00;;
25437;SDS011;13364;49.084;9.978;2023-08-31T02:04:24;2.00;;;1.80;;
25437;SDS011;13364;49.084;9.978;2023-08-31T02:06:51;1.83;;;1.52;;
25437;SDS011;13364;49.084;9.978;2023-08-31T02:09:19;1.73;;;1.60;;
25437;SDS011;13364;49.084;9.978;2023-08-31T02:11:47;3.75;;;1.90;;
25437;SDS011;13364;49.084;9.978;2023-08-31T02:14:15;1.90;;;1.70;;
25437;SDS011;13364;49.084;9.978;2023-08-31T02:16:42;2.83;;;2.05;;
25437;SDS011;13364;49.084;9.978;2023-08-31T02:19:09;2.63;;;1.80;;
25437;SDS011;13364;49.084;9.978;2023-08-31T02:21:36;2.25;;;1.90;;
25437;SDS011;13364;49.084;9.978;2023-08-31T02:24:03;2.60;;;1.88;;
25437;SDS011;13364;49.084;9.978;2023-08-31T02:26:31;3.03;;;2.17;;
25437;SDS011;13364;49.084;9.978;2023-08-31T02:28:58;2.25;;;1.80;;
25437;SDS011;13364;49.084;9.978;2023-08-31T02:31:25;2.92;;;2.03;;
25437;SDS011;13364;49.084;9.978;2023-08-31T02:33:52;2.30;;;2.10;;
25437;SDS011;13364;49.084;9.978;2023-08-31T02:36:19;2.55;;;2.08;;
25437;SDS011;13364;49.084;9.978;2023-08-31T02:38:47;2.20;;;2.00;;
25437;SDS011;13364;49.084;9.978;2023-08-31T02:41:16;3.27;;;2.30;;
25437;SDS011;13364;49.084;9.978;2023-08-31T02:43:43;2.90;;;2.22;;
25437;SDS011;13364;49.084;9.978;2023-08-31T02:46:10;3.65;;;2.00;;
25437;SDS011;13364;49.084;9.978;2023-08-31T02:48:39;2.38;;;2.13;;
25437;SDS011;13364;49.084;9.978;2023-08-31T02:51:07;2.70;;;1.85;;
25437;SDS011;13364;49.084;9.978;2023-08-31T02:53:34;2.13;;;1.92;;
25437;SDS011;13364;49.084;9.978;2023-08-31T02:56:02;2.22;;;1.92;;
25437;SDS011;13364;49.084;9.978;2023-08-31T02:58:29;3.55;;;2.25;;
25437;SDS011;13364;49.084;9.978;2023-08-31T03:01:05;2.30;;;2.10;;
25437;SDS011;13364;49.084;9.978;2023-08-31T03:03:45;3.03;;;2.60;;
25437;SDS011;13364;49.084;9.978;2023-08-31T03:06:13;2.67;;;2.47;;
25437;SDS011;13364;49.084;9.978;2023-08-31T03:08:41;2.75;;;2.10;;
25437;SDS011;13364;49.084;9.978;2023-08-31T03:11:08;2.50;;;2.30;;
25437;SDS011;13364;49.084;9.978;2023-08-31T03:13:35;3.47;;;2.17;;
25437;SDS011;13364;49.084;9.978;2023-08-31T03:16:03;2.42;;;2.10;;
25437;SDS011;13364;49.084;9.978;2023-08-31T03:18:30;2.33;;;2.13;;
25437;SDS011;13364;49.084;9.978;2023-08-31T03:20:57;4.10;;;2.90;;
25437;SDS011;13364;49.084;9.978;2023-08-31T03:23:24;3.63;;;2.42;;
25437;SDS011;13364;49.084;9.978;2023-08-31T03:25:53;3.70;;;3.00;;
25437;SDS011;13364;49.084;9.978;2023-08-31T03:28:20;2.53;;;2.20;;
25437;SDS011;13364;49.084;9.978;2023-08-31T03:31:06;4.97;;;2.70;;
25437;SDS011;13364;49.084;9.978;2023-08-31T03:33:33;3.92;;;2.75;;
25437;SDS011;13364;49.084;9.978;2023-08-31T03:36:01;3.60;;;2.63;;
25437;SDS011;13364;49.084;9.978;2023-08-31T03:38:32;3.25;;;2.80;;
25437;SDS011;13364;49.084;9.978;2023-08-31T03:41:04;4.38;;;2.60;;
25437;SDS011;13364;49.084;9.978;2023-08-31T03:43:31;4.70;;;2.85;;
25437;SDS011;13364;49.084;9.978;2023-08-31T03:45:59;4.30;;;3.10;;
25437;SDS011;13364;49.084;9.978;2023-08-31T03:48:27;4.63;;;2.50;;
25437;SDS011;13364;49.084;9.978;2023-08-31T03:50:54;3.00;;;2.42;;
25437;SDS011;13364;49.084;9.978;2023-08-31T03:53:22;3.50;;;3.15;;
25437;SDS011;13364;49.084;9.978;2023-08-31T03:55:53;3.53;;;2.72;;
25437;SDS011;13364;49.084;9.978;2023-08-31T03:58:22;3.85;;;2.60;;
25437;SDS011;13364;49.084;9.978;2023-08-31T04:00:51;2.72;;;2.20;;
25437;SDS011;13364;49.084;9.978;2023-08-31T04:03:18;3.85;;;2.83;;
25437;SDS011;13364;49.084;9.978;2023-08-31T04:05:47;4.40;;;3.35;;
25437;SDS011;13364;49.084;9.978;2023-08-31T04:08:14;3.70;;;2.70;;
25437;SDS011;13364;49.084;9.978;2023-08-31T04:10:41;4.05;;;2.58;;
25437;SDS011;13364;49.084;9.978;2023-08-31T04:13:08;3.03;;;2.58;;
25437;SDS011;13364;49.084;9.978;2023-08-31T04:15:36;4.05;;;2.75;;
25437;SDS011;13364;49.084;9.978;2023-08-31T04:18:03;2.85;;;2.28;;
25437;SDS011;13364;49.084;9.978;2023-08-31T04:20:32;3.70;;;2.75;;
25437;SDS011;13364;49.084;9.978;2023-08-31T04:23:00;3.33;;;2.53;;
25437;SDS011;13364;49.084;9.978;2023-08-31T04:25:28;3.17;;;2.75;;
25437;SDS011;13364;49.084;9.978;2023-08-31T04:27:58;3.58;;;2.60;;
25437;SDS011;13364;49.084;9.978;2023-08-31T04:30:25;2.75;;;2.40;;
25437;SDS011;13364;49.084;9.978;2023-08-31T04:32:53;3.38;;;2.72;;
25437;SDS011;13364;49.084;9.978;2023-08-31T04:35:20;3.17;;;2.63;;
25437;SDS011;13364;49.084;9.978;2023-08-31T04:37:47;3.08;;;2.38;;
25437;SDS011;13364;49.084;9.978;2023-08-31T04:40:15;2.20;;;2.00;;
25437;SDS011;13364;49.084;9.978;2023-08-31T04:42:42;2.50;;;2.20;;
25437;SDS011;13364;49.084;9.978;2023-08-31T04:45:10;2.30;;;2.03;;
25437;SDS011;13364;49.084;9.978;2023-08-31T04:47:38;3.05;;;2.28;;
25437;SDS011;13364;49.084;9.978;2023-08-31T04:50:06;3.22;;;2.30;;
25437;SDS011;13364;49.084;9.978;2023-08-31T04:52:34;2.22;;;2.03;;
25437;SDS011;13364;49.084;9.978;2023-08-31T04:55:01;3.10;;;2.58;;
25437;SDS011;13364;49.084;9.978;2023-08-31T04:57:31;2.83;;;2.53;;
25437;SDS011;13364;49.084;9.978;2023-08-31T04:59:58;3.15;;;2.33;;
25437;SDS011;13364;49.084;9.978;2023-08-31T05:02:25;3.47;;;2.03;;
25437;SDS011;13364;49.084;9.978;2023-08-31T05:04:54;3.25;;;2.20;;
25437;SDS011;13364;49.084;9.978;2023-08-31T05:07:21;2.35;;;2.00;;
25437;SDS011;13364;49.084;9.978;2023-08-31T05:09:48;3.67;;;2.15;;
25437;SDS011;13364;49.084;9.978;2023-08-31T05:12:16;2.47;;;2.03;;
25437;SDS011;13364;49.084;9.978;2023-08-31T05:14:44;4.07;;;2.00;;
25437;SDS011;13364;49.084;9.978;2023-08-31T05:17:11;3.08;;;1.88;;
25437;SDS011;13364;49.084;9.978;2023-08-31T05:19:38;4.88;;;1.85;;
25437;SDS011;13364;49.084;9.978;2023-08-31T05:22:05;2.72;;;1.92;;
25437;SDS011;13364;49.084;9.978;2023-08-31T05:24:32;2.22;;;1.90;;
25437;SDS011;13364;49.084;9.978;2023-08-31T05:26:59;2.30;;;2.10;;
25437;SDS011;13364;49.084;9.978;2023-08-31T05:29:27;2.63;;;1.83;;
25437;SDS011;13364;49.084;9.978;2023-08-31T05:31:54;2.65;;;1.83;;
25437;SDS011;13364;49.084;9.978;2023-08-31T05:34:21;2.13;;;1.90;;
25437;SDS011;13364;49.084;9.978;2023-08-31T05:36:51;2.65;;;2.03;;
25437;SDS011;13364;49.084;9.978;2023-08-31T05:39:18;2.95;;;2.45;;
25437;SDS011;13364;49.084;9.978;2023-08-31T05:41:45;2.03;;;1.80;;
25437;SDS011;13364;49.084;9.978;2023-08-31T05:44:13;2.65;;;2.05;;
25437;SDS011;13364;49.084;9.978;2023-08-31T05:46:40;3.42;;;2.40;;
25437;SDS011;13364;49.084;9.978;2023-08-31T05:49:07;2.50;;;1.90;;
25437;SDS011;13364;49.084;9.978;2023-08-31T05:51:35;2.38;;;1.85;;
25437;SDS011;13364;49.084;9.978;2023-08-31T05:54:02;3.67;;;2.13;;
25437;SDS011;13364;49.084;9.978;2023-08-31T05:56:30;3.10;;;2.40;;
25437;SDS011;13364;49.084;9.978;2023-08-31T05:58:57;2.60;;;2.17;;
25437;SDS011;13364;49.084;9.978;2023-08-31T06:01:24;2.50;;;1.92;;
25437;SDS011;13364;49.084;9.978;2023-08-31T06:03:51;2.25;;;2.00;;
25437;SDS011;13364;49.084;9.978;2023-08-31T06:06:18;2.53;;;1.80;;
25437;SDS011;13364;49.084;9.978;2023-08-31T06:08:46;2.25;;;2.05;;
25437;SDS011;13364;49.084;9.978;2023-08-31T06:11:13;1.95;;;1.55;;
25437;SDS011;13364;49.084;9.978;2023-08-31T06:13:40;2.10;;;1.85;;
25437;SDS011;13364;49.084;9.978;2023-08-31T06:16:07;1.90;;;1.75;;
25437;SDS011;13364;49.084;9.978;2023-08-31T06:18:37;2.78;;;1.67;;
25437;SDS011;13364;49.084;9.978;2023-08-31T06:21:07;4.88;;;1.80;;
25437;SDS011;13364;49.084;9.978;2023-08-31T06:23:35;3.28;;;1.80;;
25437;SDS011;13364;49.084;9.978;2023-08-31T06:26:02;2.85;;;1.80;;
25437;SDS011;13364;49.084;9.978;2023-08-31T06:28:30;2.42;;;1.77;;
25437;SDS011;13364;49.084;9.978;2023-08-31T06:30:57;2.60;;;1.90;;
25437;SDS011;13364;49.084;9.978;2023-08-31T06:33:24;2.30;;;1.90;;
25437;SDS011;13364;49.084;9.978;2023-08-31T06:35:51;2.25;;;1.52;;
25437;SDS011;13364;49.084;9.978;2023-08-31T06:38:19;3.15;;;1.83;;
25437;SDS011;13364;49.084;9.978;2023-08-31T06:40:46;2.05;;;1.80;;
25437;SDS011;13364;49.084;9.978;2023-08-31T06:43:14;2.50;;;1.98;;
25437;SDS011;13364;49.084;9.978;2023-08-31T06:45:41;2.60;;;1.95;;
25437;SDS011;13364;49.084;9.978;2023-08-31T06:48:09;3.75;;;1.85;;
25437;SDS011;13364;49.084;9.978;2023-08-31T06:53:05;2.25;;;1.50;;
25437;SDS011;13364;49.084;9.978;2023-08-31T06:55:33;1.55;;;1.45;;
25437;SDS011;13364;49.084;9.978;2023-08-31T06:58:01;1.67;;;1.58;;
25437;SDS011;13364;49.084;9.978;2023-08-31T07:00:31;2.05;;;1.52;;
25437;SDS011;13364;49.084;9.978;2023-08-31T07:02:59;4.10;;;1.73;;
25437;SDS011;13364;49.084;9.978;2023-08-31T07:05:26;2.00;;;1.80;;
25437;SDS011;13364;49.084;9.978;2023-08-31T07:07:57;1.42;;;1.30;;
25437;SDS011;13364;49.084;9.978;2023-08-31T07:10:27;3.03;;;1.60;;
25437;SDS011;13364;49.084;9.978;2023-08-31T07:12:54;2.17;;;1.35;;
25437;SDS011;13364;49.084;9.978;2023-08-31T07:15:21;1.73;;;1.55;;
25437;SDS011;13364;49.084;9.978;2023-08-31T07:17:48;2.15;;;1.42;;
25437;SDS011;13364;49.084;9.978;2023-08-31T07:20:16;3.65;;;1.80;;
25437;SDS011;13364;49.084;9.978;2023-08-31T07:22:43;1.92;;;1.50;;
25437;SDS011;13364;49.084;9.978;2023-08-31T07:25:10;1.98;;;1.40;;
25437;SDS011;13364;49.084;9.978;2023-08-31T07:27:46;1.48;;;1.20;;
25437;SDS011;13364;49.084;9.978;2023-08-31T07:30:45;1.90;;;1.50;;
25437;SDS011;13364;49.084;9.978;2023-08-31T07:33:13;1.67;;;1.40;;
25437;SDS011;13364;49.084;9.978;2023-08-31T07:35:56;1.27;;;1.17;;
25437;SDS011;13364;49.084;9.978;2023-08-31T07:38:26;2.35;;;1.60;;
25437;SDS011;13364;49.084;9.978;2023-08-31T07:40:53;2.90;;;1.42;;
25437;SDS011;13364;49.084;9.978;2023-08-31T07:43:22;1.80;;;1.52;;
25437;SDS011;13364;49.084;9.978;2023-08-31T07:45:52;1.92;;;1.73;;
25437;SDS011;13364;49.084;9.978;2023-08-31T07:48:23;3.08;;;1.88;;
25437;SDS011;13364;49.084;9.978;2023-08-31T07:50:50;1.90;;;1.63;;
25437;SDS011;13364;49.084;9.978;2023-08-31T07:53:19;1.60;;;1.30;;
25437;SDS011;13364;49.084;9.978;2023-08-31T07:55:53;1.85;;;1.50;;
25437;SDS011;13364;49.084;9.978;2023-08-31T07:58:23;1.48;;;1.20;;
25437;SDS011;13364;49.084;9.978;2023-08-31T08:03:24;2.17;;;1.35;;
25437;SDS011;13364;49.084;9.978;2023-08-31T08:05:52;2.20;;;1.42;;
25437;SDS011;13364;49.084;9.978;2023-08-31T08:08:19;3.33;;;1.63;;
25437;SDS011;13364;49.084;9.978;2023-08-31T08:10:46;1.35;;;1.15;;
25437;SDS011;13364;49.084;9.978;2023-08-31T08:13:14;1.85;;;1.50;;
25437;SDS011;13364;49.084;9.978;2023-08-31T08:15:44;1.55;;;1.45;;
25437;SDS011;13364;49.084;9.978;2023-08-31T08:18:12;1.58;;;1.48;;
25437;SDS011;13364;49.084;9.978;2023-08-31T08:20:39;1.20;;;1.10;;
25437;SDS011;13364;49.084;9.978;2023-08-31T08:23:06;1.60;;;1.50;;
25437;SDS011;13364;49.084;9.978;2023-08-31T08:25:34;3.13;;;1.35;;
25437;SDS011;13364;49.084;9.978;2023-08-31T08:28:01;2.70;;;1.10;;
25437;SDS011;13364;49.084;9.978;2023-08-31T08:30:32;1.83;;;1.10;;
25437;SDS011;13364;49.084;9.978;2023-08-31T08:32:59;3.55;;;1.40;;
25437;SDS011;13364;49.084;9.978;2023-08-31T08:35:30;3.42;;;1.20;;
25437;SDS011;13364;49.084;9.978;2023-08-31T08:37:57;1.95;;;1.30;;
25437;SDS011;13364;49.084;9.978;2023-08-31T08:40:26;2.00;;;1.33;;
25437;SDS011;13364;49.084;9.978;2023-08-31T08:42:53;1.30;;;1.15;;
25437;SDS011;13364;49.084;9.978;2023-08-31T08:45:23;3.60;;;1.45;;
25437;SDS011;13364;49.084;9.978;2023-08-31T08:47:55;2.50;;;1.30;;
25437;SDS011;13364;49.084;9.978;2023-08-31T08:50:24;1.40;;;1.30;;
25437;SDS011;13364;49.084;9.978;2023-08-31T08:52:52;2.50;;;1.23;;
25437;SDS011;13364;49.084;9.978;2023-08-31T08:58:07;1.63;;;1.20;;
25437;SDS011;13364;49.084;9.978;2023-08-31T09:00:37;3.08;;;1.10;;
25437;SDS011;13364;49.084;9.978;2023-08-31T09:03:23;1.13;;;1.02;;
25437;SDS011;13364;49.084;9.978;2023-08-31T09:05:51;2.13;;;1.27;;
25437;SDS011;13364;49.084;9.978;2023-08-31T09:08:27;1.25;;;1.10;;
25437;SDS011;13364;49.084;9.978;2023-08-31T09:10:56;2.35;;;1.27;;
25437;SDS011;13364;49.084;9.978;2023-08-31T09:13:28;3.97;;;1.58;;
25437;SDS011;13364;49.084;9.978;2023-08-31T09:15:56;1.80;;;1.33;;
25437;SDS011;13364;49.084;9.978;2023-08-31T09:18:31;1.80;;;1.33;;
25437;SDS011;13364;49.084;9.978;2023-08-31T09:20:59;2.00;;;1.23;;
25437;SDS011;13364;49.084;9.978;2023-08-31T09:23:27;1.63;;;1.20;;
25437;SDS011;13364;49.084;9.978;2023-08-31T09:25:57;1.35;;;1.23;;
25437;SDS011;13364;49.084;9.978;2023-08-31T09:28:29;3.33;;;1.50;;
25437;SDS011;13364;49.084;9.978;2023-08-31T09:31:04;1.90;;;1.40;;
25437;SDS011;13364;49.084;9.978;2023-08-31T09:33:37;1.30;;;1.20;;
25437;SDS011;13364;49.084;9.978;2023-08-31T09:36:16;1.30;;;1.20;;
25437;SDS011;13364;49.084;9.978;2023-08-31T09:38:48;1.75;;;1.20;;
25437;SDS011;13364;49.084;9.978;2023-08-31T09:41:15;1.65;;;1.20;;
25437;SDS011;13364;49.084;9.978;2023-08-31T09:43:42;3.78;;;1.40;;
25437;SDS011;13364;49.084;9.978;2023-08-31T09:46:10;2.65;;;1.38;;
25437;SDS011;13364;49.084;9.978;2023-08-31T09:48:42;3.90;;;1.65;;
25437;SDS011;13364;49.084;9.978;2023-08-31T09:51:10;2.03;;;1.45;;
25437;SDS011;13364;49.084;9.978;2023-08-31T09:53:37;2.13;;;1.58;;
25437;SDS011;13364;49.084;9.978;2023-08-31T09:56:05;1.02;;;0.85;;
25437;SDS011;13364;49.084;9.978;2023-08-31T09:58:37;1.35;;;1.20;;
25437;SDS011;13364;49.084;9.978;2023-08-31T10:01:05;1.27;;;1.00;;
25437;SDS011;13364;49.084;9.978;2023-08-31T10:03:49;1.42;;;1.00;;
25437;SDS011;13364;49.084;9.978;2023-08-31T10:06:17;1.17;;;0.98;;
25437;SDS011;13364;49.084;9.978;2023-08-31T10:08:45;2.47;;;1.33;;
25437;SDS011;13364;49.084;9.978;2023-08-31T10:11:12;3.53;;;1.15;;
25437;SDS011;13364;49.084;9.978;2023-08-31T10:13:40;1.13;;;0.95;;
25437;SDS011;13364;49.084;9.978;2023-08-31T10:16:09;2.78;;;1.10;;
25437;SDS011;13364;49.084;9.978;2023-08-31T10:18:37;2.03;;;1.20;;
25437;SDS011;13364;49.084;9.978;2023-08-31T10:21:05;2.67;;;1.33;;
25437;SDS011;13364;49.084;9.978;2023-08-31T10:23:33;1.45;;;1.10;;
25437;SDS011;13364;49.084;9.978;2023-08-31T10:26:04;1.17;;;1.08;;
25437;SDS011;13364;49.084;9.978;2023-08-31T10:28:38;2.40;;;1.08;;
25437;SDS011;13364;49.084;9.978;2023-08-31T10:36:13;2.88;;;1.45;;
25437;SDS011;13364;49.084;9.978;2023-08-31T10:38:45;2.03;;;1.08;;
25437;SDS011;13364;49.084;9.978;2023-08-31T10:41:22;3.45;;;1.33;;
25437;SDS011;13364;49.084;9.978;2023-08-31T10:43:57;1.17;;;1.08;;
25437;SDS011;13364;49.084;9.978;2023-08-31T10:54:05;1.42;;;1.00;;
25437;SDS011;13364;49.084;9.978;2023-08-31T10:56:51;2.78;;;1.20;;
25437;SDS011;13364;49.084;9.978;2023-08-31T10:59:42;2.17;;;1.30;;
25437;SDS011;13364;49.084;9.978;2023-08-31T11:02:56;1.42;;;0.90;;
25437;SDS011;13364;49.084;9.978;2023-08-31T11:05:14;1.55;;;1.02;;
25437;SDS011;13364;49.084;9.978;2023-08-31T11:07:43;2.05;;;0.90;;
25437;SDS011;13364;49.084;9.978;2023-08-31T11:10:24;3.40;;;1.13;;
25437;SDS011;13364;49.084;9.978;2023-08-31T11:12:54;1.70;;;1.02;;
25437;SDS011;13364;49.084;9.978;2023-08-31T11:15:24;1.58;;;1.38;;
25437;SDS011;13364;49.084;9.978;2023-08-31T11:17:56;1.30;;;1.10;;
25437;SDS011;13364;49.084;9.978;2023-08-31T11:20:23;3.10;;;1.27;;
25437;SDS011;13364;49.084;9.978;2023-08-31T11:22:55;2.95;;;1.25;;
25437;SDS011;13364;49.084;9.978;2023-08-31T11:25:23;2.28;;;1.30;;
25437;SDS011;13364;49.084;9.978;2023-08-31T11:27:55;1.95;;;1.17;;
25437;SDS011;13364;49.084;9.978;2023-08-31T11:30:27;2.58;;;1.00;;
25437;SDS011;13364;49.084;9.978;2023-08-31T11:33:01;2.58;;;1.35;;
25437;SDS011;13364;49.084;9.978;2023-08-31T11:35:34;1.83;;;1.20;;
25437;SDS011;13364;49.084;9.978;2023-08-31T11:38:03;1.45;;;1.00;;
25437;SDS011;13364;49.084;9.978;2023-08-31T11:40:30;1.15;;;0.80;;
25437;SDS011;13364;49.084;9.978;2023-08-31T11:42:58;2.88;;;1.35;;
25437;SDS011;13364;49.084;9.978;2023-08-31T11:45:30;0.95;;;0.82;;
25437;SDS011;13364;49.084;9.978;2023-08-31T11:47:58;1.60;;;1.13;;
25437;SDS011;13364;49.084;9.978;2023-08-31T11:50:26;1.17;;;1.08;;
25437;SDS011;13364;49.084;9.978;2023-08-31T11:52:54;1.02;;;0.88;;
25437;SDS011;13364;49.084;9.978;2023-08-31T11:55:22;2.92;;;1.00;;
25437;SDS011;13364;49.084;9.978;2023-08-31T11:57:53;1.45;;;1.20;;
25437;SDS011;13364;49.084;9.978;2023-08-31T12:00:21;2.80;;;1.52;;
25437;SDS011;13364;49.084;9.978;2023-08-31T12:02:55;1.92;;;1.30;;
25437;SDS011;13364;49.084;9.978;2023-08-31T12:05:24;1.98;;;1.05;;
25437;SDS011;13364;49.084;9.978;2023-08-31T12:07:55;2.47;;;1.20;;
25437;SDS011;13364;49.084;9.978;2023-08-31T12:10:26;1.60;;;1.20;;
25437;SDS011;13364;49.084;9.978;2023-08-31T12:12:54;2.60;;;1.73;;
25437;SDS011;13364;49.084;9.978;2023-08-31T12:18:08;2.38;;;1.38;;
25437;SDS011;13364;49.084;9.978;2023-08-31T12:23:32;1.05;;;0.90;;
25437;SDS011;13364;49.084;9.978;2023-08-31T12:26:00;0.93;;;0.93;;
25437;SDS011;13364;49.084;9.978;2023-08-31T12:28:27;1.75;;;1.17;;
25437;SDS011;13364;49.084;9.978;2023-08-31T12:30:54;1.40;;;1.15;;
25437;SDS011;13364;49.084;9.978;2023-08-31T12:33:23;1.33;;;1.10;;
25437;SDS011;13364;49.084;9.978;2023-08-31T12:35:51;1.98;;;1.08;;
25437;SDS011;13364;49.084;9.978;2023-08-31T12:38:18;4.38;;;1.92;;
25437;SDS011;13364;49.084;9.978;2023-08-31T12:40:46;1.83;;;1.38;;
25437;SDS011;13364;49.084;9.978;2023-08-31T12:43:13;1.55;;;1.33;;
25437;SDS011;13364;49.084;9.978;2023-08-31T12:45:43;2.25;;;1.13;;
25437;SDS011;13364;49.084;9.978;2023-08-31T12:48:10;1.73;;;1.25;;
25437;SDS011;13364;49.084;9.978;2023-08-31T12:50:37;1.35;;;1.15;;
25437;SDS011;13364;49.084;9.978;2023-08-31T12:53:04;3.83;;;1.30;;
25437;SDS011;13364;49.084;9.978;2023-08-31T12:55:31;2.13;;;1.40;;
25437;SDS011;13364;49.084;9.978;2023-08-31T12:57:59;2.17;;;1.33;;
25437;SDS011;13364;49.084;9.978;2023-08-31T13:00:26;2.28;;;1.27;;
25437;SDS011;13364;49.084;9.978;2023-08-31T13:02:53;1.23;;;0.93;;
25437;SDS011;13364;49.084;9.978;2023-08-31T13:05:21;1.42;;;1.00;;
25437;SDS011;13364;49.084;9.978;2023-08-31T13:07:48;2.42;;;1.30;;
25437;SDS011;13364;49.084;9.978;2023-08-31T13:10:15;1.35;;;1.00;;
25437;SDS011;13364;49.084;9.978;2023-08-31T13:12:43;2.13;;;1.20;;
25437;SDS011;13364;49.084;9.978;2023-08-31T13:15:10;1.50;;;1.30;;
25437;SDS011;13364;49.084;9.978;2023-08-31T13:17:40;1.88;;;1.10;;
25437;SDS011;13364;49.084;9.978;2023-08-31T13:20:08;2.53;;;1.58;;
25437;SDS011;13364;49.084;9.978;2023-08-31T13:22:35;2.75;;;1.27;;
25437;SDS011;13364;49.084;9.978;2023-08-31T13:25:02;1.83;;;1.20;;
25437;SDS011;13364;49.084;9.978;2023-08-31T13:27:31;1.92;;;1.38;;
25437;SDS011;13364;49.084;9.978;2023-08-31T13:32:33;2.35;;;1.33;;
25437;SDS011;13364;49.084;9.978;2023-08-31T13:35:00;2.00;;;1.52;;
25437;SDS011;13364;49.084;9.978;2023-08-31T13:37:27;2.05;;;1.35;;
25437;SDS011;13364;49.084;9.978;2023-08-31T13:39:55;2.53;;;1.00;;
25437;SDS011;13364;49.084;9.978;2023-08-31T13:42:22;1.25;;;1.10;;
25437;SDS011;13364;49.084;9.978;2023-08-31T13:44:49;1.45;;;1.27;;
25437;SDS011;13364;49.084;9.978;2023-08-31T13:47:16;3.40;;;1.60;;
25437;SDS011;13364;49.084;9.978;2023-08-31T13:49:44;1.92;;;1.20;;
25437;SDS011;13364;49.084;9.978;2023-08-31T13:52:11;1.40;;;1.20;;
25437;SDS011;13364;49.084;9.978;2023-08-31T13:54:38;2.95;;;1.50;;
25437;SDS011;13364;49.084;9.978;2023-08-31T13:57:05;2.78;;;1.40;;
25437;SDS011;13364;49.084;9.978;2023-08-31T13:59:32;2.45;;;1.35;;
25437;SDS011;13364;49.084;9.978;2023-08-31T14:01:59;2.95;;;1.45;;
25437;SDS011;13364;49.084;9.978;2023-08-31T14:04:26;2.42;;;1.90;;
25437;SDS011;13364;49.084;9.978;2023-08-31T14:06:53;1.40;;;0.98;;
25437;SDS011;13364;49.084;9.978;2023-08-31T14:09:21;2.58;;;1.60;;
25437;SDS011;13364;49.084;9.978;2023-08-31T14:11:48;2.10;;;1.48;;
25437;SDS011;13364;49.084;9.978;2023-08-31T14:14:15;2.35;;;1.35;;
25437;SDS011;13364;49.084;9.978;2023-08-31T14:16:42;2.70;;;1.30;;
25437;SDS011;13364;49.084;9.978;2023-08-31T14:19:10;2.35;;;1.67;;
25437;SDS011;13364;49.084;9.978;2023-08-31T14:21:38;3.15;;;1.45;;
25437;SDS011;13364;49.084;9.978;2023-08-31T14:24:05;2.05;;;1.13;;
25437;SDS011;13364;49.084;9.978;2023-08-31T14:26:32;5.20;;;1.50;;
25437;SDS011;13364;49.084;9.978;2023-08-31T14:29:00;2.90;;;1.40;;
25437;SDS011;13364;49.084;9.978;2023-08-31T14:31:27;1.70;;;1.27;;
25437;SDS011;13364;49.084;9.978;2023-08-31T14:33:54;1.77;;;1.40;;
25437;SDS011;13364;49.084;9.978;2023-08-31T14:36:22;2.25;;;1.58;;
25437;SDS011;13364;49.084;9.978;2023-08-31T14:38:52;2.33;;;1.30;;
25437;SDS011;13364;49.084;9.978;2023-08-31T14:41:19;1.92;;;1.17;;
25437;SDS011;13364;49.084;9.978;2023-08-31T14:43:46;2.95;;;1.45;;
25437;SDS011;13364;49.084;9.978;2023-08-31T14:46:13;3.17;;;1.52;;
25437;SDS011;13364;49.084;9.978;2023-08-31T14:48:40;3.05;;;1.33;;
25437;SDS011;13364;49.084;9.978;2023-08-31T14:51:07;1.55;;;1.10;;
25437;SDS011;13364;49.084;9.978;2023-08-31T14:53:35;2.25;;;1.55;;
25437;SDS011;13364;49.084;9.978;2023-08-31T14:56:02;4.00;;;1.63;;
25437;SDS011;13364;49.084;9.978;2023-08-31T14:58:30;1.85;;;1.30;;
25437;SDS011;13364;49.084;9.978;2023-08-31T15:00:57;1.45;;;1.30;;
25437;SDS011;13364;49.084;9.978;2023-08-31T15:03:24;2.13;;;1.05;;
25437;SDS011;13364;49.084;9.978;2023-08-31T15:05:51;1.38;;;1.10;;
25437;SDS011;13364;49.084;9.978;2023-08-31T15:08:21;1.65;;;1.10;;
25437;SDS011;13364;49.084;9.978;2023-08-31T15:11:01;3.53;;;1.33;;
25437;SDS011;13364;49.084;9.978;2023-08-31T15:13:29;1.17;;;1.08;;
25437;SDS011;13364;49.084;9.978;2023-08-31T15:15:57;1.50;;;1.35;;
25437;SDS011;13364;49.084;9.978;2023-08-31T15:18:27;1.98;;;1.33;;
25437;SDS011;13364;49.084;9.978;2023-08-31T15:20:55;5.60;;;1.60;;
25437;SDS011;13364;49.084;9.978;2023-08-31T15:23:22;1.55;;;1.05;;
25437;SDS011;13364;49.084;9.978;2023-08-31T15:25:49;1.42;;;1.20;;
25437;SDS011;13364;49.084;9.978;2023-08-31T15:28:16;3.13;;;1.77;;
25437;SDS011;13364;49.084;9.978;2023-08-31T15:30:44;3.53;;;1.40;;
25437;SDS011;13364;49.084;9.978;2023-08-31T15:33:11;1.98;;;1.38;;
25437;SDS011;13364;49.084;9.978;2023-08-31T15:35:38;1.80;;;1.45;;
25437;SDS011;13364;49.084;9.978;2023-08-31T15:38:05;1.67;;;1.25;;